Time;durP1;ratioP1;P1;durP2;ratioP2;P2;SDS_P1;SDS_P2;PMS_P1;PMS_P2;Temp;Humidity;BMP_temperature;BMP_pressure;BME280_temperature;BME280_humidity;BME280_pressure;Samples;Min_cycle;Max_cycle;Signal;HPM_P1;HPM_P2
2023/07/14 00:01:45;;;;;;;0.50;0.20;;;;;;;15.92;84.81;100475.59;5039889;28;20458;-52
2023/07/14 00:04:16;;;;;;;0.50;0.20;;;;;;;15.86;84.80;100474.06;5043320;28;20451;-52
2023/07/14 00:06:45;;;;;;;0.50;0.20;;;;;;;15.80;85.24;100466.34;5046249;28;20887;-52
2023/07/14 00:09:18;;;;;;;0.50;0.20;;;;;;;15.72;85.00;100464.94;5043463;28;20844;-52
2023/07/14 00:11:45;;;;;;;0.50;0.20;;;;;;;15.65;85.09;100465.25;5038677;28;20443;-52
2023/07/14 00:14:11;;;;;;;0.50;0.20;;;;;;;15.61;85.54;100462.75;5041200;28;20531;-52
2023/07/14 00:16:38;;;;;;;0.50;0.20;;;;;;;15.66;85.81;100458.94;5045979;28;21003;-52
2023/07/14 00:19:11;;;;;;;0.50;0.20;;;;;;;15.73;85.56;100461.31;5044739;28;20489;-52
2023/07/14 00:21:37;;;;;;;0.50;0.20;;;;;;;15.83;85.10;100457.28;5039335;28;20475;-52
2023/07/14 00:24:10;;;;;;;0.60;0.60;;;;;;;15.93;84.89;100459.44;5040221;28;20478;-52
2023/07/14 00:26:37;;;;;;;0.50;0.20;;;;;;;16.02;84.41;100463.47;5039784;28;20461;-52
2023/07/14 00:29:24;;;;;;;0.50;0.20;;;;;;;16.20;83.88;100457.25;5039383;28;20526;-52
2023/07/14 00:31:50;;;;;;;0.50;0.20;;;;;;;16.14;84.22;100465.56;5042648;28;20532;-52
2023/07/14 00:34:17;;;;;;;0.50;0.20;;;;;;;16.17;84.38;100460.06;5046030;28;20455;-53
2023/07/14 00:36:43;;;;;;;0.50;0.20;;;;;;;16.34;83.86;100458.38;5042597;28;20581;-52
2023/07/14 00:39:09;;;;;;;0.50;0.20;;;;;;;16.25;84.11;100457.00;5033607;28;20558;-52
2023/07/14 00:41:36;;;;;;;0.50;0.20;;;;;;;16.23;84.21;100449.03;5042704;28;20483;-52
2023/07/14 00:44:03;;;;;;;0.50;0.30;;;;;;;16.30;84.41;100454.94;5037280;28;20462;-52
2023/07/14 00:46:32;;;;;;;0.50;0.20;;;;;;;16.37;83.98;100452.84;5042525;28;20450;-52
2023/07/14 00:49:05;;;;;;;0.50;0.20;;;;;;;16.39;84.16;100457.19;5038701;28;20467;-52
2023/07/14 00:51:35;;;;;;;0.50;0.20;;;;;;;16.46;83.86;100452.41;5040786;28;20447;-52
2023/07/14 00:54:03;;;;;;;0.50;0.20;;;;;;;16.54;84.17;100455.53;5045895;28;20498;-52
2023/07/14 00:56:37;;;;;;;0.50;0.20;;;;;;;16.55;84.48;100451.91;5045026;28;20577;-52
2023/07/14 00:59:12;;;;;;;0.50;0.20;;;;;;;16.57;84.32;100450.88;5045407;28;20471;-52
2023/07/14 01:02:16;;;;;;;0.50;0.20;;;;;;;16.39;84.83;100449.13;5045778;28;20538;-52
2023/07/14 01:04:54;;;;;;;0.50;0.20;;;;;;;16.46;84.81;100447.03;5045658;28;20443;-52
2023/07/14 01:07:27;;;;;;;0.50;0.20;;;;;;;16.51;84.22;100451.22;5024130;28;20445;-52
2023/07/14 01:09:57;;;;;;;0.50;0.20;;;;;;;16.63;83.60;100441.66;5031399;28;20880;-52
2023/07/14 01:12:25;;;;;;;0.50;0.20;;;;;;;16.69;83.32;100443.19;5041935;28;20534;-52
2023/07/14 01:14:55;;;;;;;0.50;0.20;;;;;;;16.75;83.10;100441.06;5045498;28;20452;-53
2023/07/14 01:17:22;;;;;;;0.50;0.20;;;;;;;16.76;84.40;100444.63;5043206;28;20497;-52
2023/07/14 01:19:53;;;;;;;0.50;0.20;;;;;;;16.91;83.19;100440.28;5038633;28;20893;-52
2023/07/14 01:22:47;;;;;;;0.50;0.20;;;;;;;16.91;82.08;100445.66;5042356;28;20949;-52
2023/07/14 01:25:38;;;;;;;0.50;0.20;;;;;;;16.96;82.90;100448.94;5034535;28;20442;-52
2023/07/14 01:28:08;;;;;;;0.50;0.20;;;;;;;16.55;85.39;100442.03;5024851;28;20467;-52
2023/07/14 01:30:37;;;;;;;0.50;0.20;;;;;;;16.50;86.30;100449.47;5043221;28;20483;-52
2023/07/14 01:33:09;;;;;;;4.83;2.10;;;;;;;16.70;86.08;100442.25;5049010;28;20896;-53
2023/07/14 01:35:39;;;;;;;0.47;0.20;;;;;;;16.79;85.42;100450.69;5049471;28;20521;-53
2023/07/14 01:38:06;;;;;;;0.50;0.20;;;;;;;16.84;84.84;100451.31;5035554;28;20467;-52
2023/07/14 01:40:33;;;;;;;0.50;0.20;;;;;;;16.81;85.16;100448.81;5039687;28;20450;-52
2023/07/14 01:43:06;;;;;;;0.50;0.20;;;;;;;16.75;85.94;100450.94;5031908;28;20520;-52
2023/07/14 01:45:56;;;;;;;0.40;0.20;;;;;;;16.88;85.71;100449.38;5028079;28;20459;-52
2023/07/14 01:48:37;;;;;;;0.50;0.20;;;;;;;16.85;85.54;100441.44;5047900;28;20463;-52
2023/07/14 01:51:10;;;;;;;0.50;0.20;;;;;;;16.69;86.39;100441.38;5048429;28;20554;-52
2023/07/14 01:53:45;;;;;;;0.50;0.20;;;;;;;16.66;86.23;100441.50;5048909;28;20454;-52
2023/07/14 01:56:16;;;;;;;0.50;0.20;;;;;;;16.64;86.02;100434.47;5044748;28;20490;-52
2023/07/14 01:59:00;;;;;;;0.40;0.20;;;;;;;16.52;86.08;100438.66;5042347;28;20497;-52
2023/07/14 02:01:28;;;;;;;0.50;0.20;;;;;;;16.51;86.41;100436.91;5042716;28;20443;-52
2023/07/14 02:03:56;;;;;;;0.40;0.20;;;;;;;16.35;86.23;100428.78;5048824;28;20458;-52
2023/07/14 02:06:23;;;;;;;0.40;0.20;;;;;;;16.32;86.40;100436.13;5048893;28;20473;-52
2023/07/14 02:08:51;;;;;;;0.50;0.20;;;;;;;16.18;86.57;100431.44;5042161;28;21003;-52
2023/07/14 02:11:20;;;;;;;0.50;0.20;;;;;;;16.05;86.95;100430.31;5041918;28;20455;-52
2023/07/14 02:13:50;;;;;;;0.50;0.20;;;;;;;16.03;87.58;100430.34;5055412;28;20481;-52
2023/07/14 02:16:17;;;;;;;0.40;0.20;;;;;;;15.80;88.42;100430.63;5041700;28;20569;-52
2023/07/14 02:18:45;;;;;;;0.50;0.20;;;;;;;15.74;88.60;100426.41;5046392;28;20551;-52
2023/07/14 02:21:14;;;;;;;0.50;0.20;;;;;;;15.70;88.70;100430.19;5048304;28;20529;-52
2023/07/14 02:23:41;;;;;;;0.40;0.20;;;;;;;15.63;88.77;100416.22;5044291;28;20955;-52
2023/07/14 02:26:22;;;;;;;0.50;0.20;;;;;;;15.46;89.46;100421.44;5041777;28;20504;-52
2023/07/14 02:28:48;;;;;;;0.50;0.20;;;;;;;15.57;89.32;100419.13;5043254;28;20507;-52
2023/07/14 02:31:24;;;;;;;0.50;0.20;;;;;;;15.63;88.88;100424.25;5048195;28;20491;-52
2023/07/14 02:33:51;;;;;;;0.50;0.20;;;;;;;15.60;88.83;100428.88;5046950;28;20443;-52
2023/07/14 02:36:44;;;;;;;0.50;0.20;;;;;;;15.56;89.47;100416.53;5041379;28;20490;-52
2023/07/14 02:39:11;;;;;;;0.50;0.20;;;;;;;15.53;89.07;100428.25;5066478;23;20497;-49
2023/07/14 02:41:40;;;;;;;0.50;0.20;;;;;;;15.34;89.75;100424.69;5064798;28;20450;-49
2023/07/14 02:44:12;;;;;;;0.50;0.20;;;;;;;15.39;89.62;100420.00;5071736;28;20457;-49
2023/07/14 02:46:52;;;;;;;0.50;0.20;;;;;;;15.46;89.23;100421.44;5063554;28;20445;-49
2023/07/14 02:49:19;;;;;;;0.50;0.20;;;;;;;15.31;89.64;100424.81;5061377;28;20557;-49
2023/07/14 02:51:45;;;;;;;0.50;0.20;;;;;;;15.26;89.61;100430.41;5074453;28;20477;-49
2023/07/14 02:54:12;;;;;;;0.50;0.20;;;;;;;15.33;90.01;100425.63;5074359;28;20492;-49
2023/07/14 02:56:38;;;;;;;0.50;0.20;;;;;;;15.10;90.20;100426.69;5074051;28;20490;-51
2023/07/14 02:59:09;;;;;;;0.50;0.20;;;;;;;15.21;90.73;100428.84;5074410;28;20515;-48
2023/07/14 03:01:35;;;;;;;0.50;0.20;;;;;;;15.19;90.59;100425.38;5074138;28;20925;-49
2023/07/14 03:04:02;;;;;;;0.50;0.20;;;;;;;15.24;90.42;100426.94;5074195;28;20580;-49
2023/07/14 03:06:28;;;;;;;0.50;0.20;;;;;;;15.28;90.77;100430.34;5074053;28;20446;-49
2023/07/14 03:08:55;;;;;;;0.50;0.20;;;;;;;15.28;90.77;100419.63;5073859;28;20470;-49
2023/07/14 03:11:22;;;;;;;0.50;0.20;;;;;;;15.33;90.49;100423.81;5074148;28;20503;-48
2023/07/14 03:13:49;;;;;;;0.40;0.20;;;;;;;15.41;91.05;100418.97;5074190;28;20544;-48
2023/07/14 03:16:15;;;;;;;0.50;0.20;;;;;;;15.43;91.20;100416.22;5073757;28;20490;-50
2023/07/14 03:18:43;;;;;;;0.40;0.20;;;;;;;15.42;91.36;100419.84;5073797;28;20475;-49
2023/07/14 03:21:10;;;;;;;0.43;0.20;;;;;;;15.39;91.80;100422.69;5073729;28;20450;-50
2023/07/14 03:23:37;;;;;;;0.50;0.20;;;;;;;15.36;91.86;100418.34;5073616;28;20446;-49
2023/07/14 03:26:06;;;;;;;0.40;0.20;;;;;;;15.31;92.53;100423.00;5073874;28;20442;-49
2023/07/14 03:28:34;;;;;;;0.50;0.20;;;;;;;15.44;91.98;100415.28;5073582;28;20469;-49
2023/07/14 03:31:04;;;;;;;0.50;0.20;;;;;;;15.40;92.45;100424.41;5073580;28;20479;-49
2023/07/14 03:33:33;;;;;;;0.50;0.20;;;;;;;15.45;92.16;100417.03;5073820;28;20488;-48
2023/07/14 03:36:04;;;;;;;0.50;0.20;;;;;;;15.49;92.45;100421.31;5073203;28;20446;-49
2023/07/14 03:38:38;;;;;;;0.40;0.20;;;;;;;15.46;92.09;100415.22;5073118;28;20508;-49
2023/07/14 03:41:05;;;;;;;0.43;0.20;;;;;;;15.46;91.46;100418.75;5073422;28;20560;-49
2023/07/14 03:43:31;;;;;;;0.40;0.20;;;;;;;15.63;90.93;100418.91;5073217;28;20445;-49
2023/07/14 03:45:58;;;;;;;0.50;0.20;;;;;;;15.58;91.02;100414.63;5073177;28;20461;-49
2023/07/14 03:48:24;;;;;;;0.50;0.20;;;;;;;15.41;92.50;100412.75;5073145;28;20531;-49
2023/07/14 03:50:51;;;;;;;0.40;0.20;;;;;;;15.53;92.21;100412.19;5073101;28;20481;-49
2023/07/14 03:53:17;;;;;;;0.50;0.20;;;;;;;15.48;92.35;100416.88;5073394;28;20543;-48
2023/07/14 03:55:47;;;;;;;0.40;0.20;;;;;;;15.42;91.91;100406.47;5073302;28;20508;-48
2023/07/14 03:58:13;;;;;;;0.50;0.20;;;;;;;15.39;92.76;100409.28;5072880;28;20489;-48
2023/07/14 04:00:40;;;;;;;0.50;0.20;;;;;;;15.42;92.51;100406.47;5073130;28;20584;-48
2023/07/14 04:03:07;;;;;;;0.50;0.20;;;;;;;15.41;92.34;100404.72;5072870;28;20879;-49
2023/07/14 04:05:34;;;;;;;0.40;0.20;;;;;;;15.22;93.71;100403.84;5073205;28;20453;-48
2023/07/14 04:08:00;;;;;;;0.40;0.20;;;;;;;15.28;93.78;100403.56;5072821;28;20492;-48
2023/07/14 04:10:26;;;;;;;0.40;0.20;;;;;;;15.43;93.11;100394.78;5073025;28;20494;-48
2023/07/14 04:12:53;;;;;;;0.40;0.20;;;;;;;15.56;92.58;100397.78;5072838;28;20872;-48
2023/07/14 04:15:21;;;;;;;0.50;0.20;;;;;;;15.63;92.29;100401.94;5073148;28;20553;-48
2023/07/14 04:17:48;;;;;;;0.50;0.20;;;;;;;15.59;92.05;100400.28;5072399;28;20504;-48
2023/07/14 04:20:15;;;;;;;0.50;0.20;;;;;;;15.66;91.88;100397.31;5072651;28;20496;-48
2023/07/14 04:22:41;;;;;;;0.40;0.20;;;;;;;15.70;91.81;100401.56;5072713;28;20450;-48
2023/07/14 04:25:09;;;;;;;0.50;0.20;;;;;;;15.61;92.23;100391.28;5072830;28;20457;-48
2023/07/14 04:27:36;;;;;;;0.40;0.20;;;;;;;15.76;91.54;100388.78;5072526;28;20506;-49
2023/07/14 04:30:04;;;;;;;0.40;0.20;;;;;;;15.81;91.28;100392.16;5073083;28;20488;-49
2023/07/14 04:32:31;;;;;;;3.00;2.80;;;;;;;15.73;91.53;100397.00;5073275;28;20446;-48
2023/07/14 04:34:57;;;;;;;0.40;0.20;;;;;;;15.66;92.13;100396.44;5073146;28;20459;-49
2023/07/14 04:37:24;;;;;;;0.47;0.20;;;;;;;15.49;93.70;100394.53;5072409;28;20585;-48
2023/07/14 04:39:51;;;;;;;0.40;0.20;;;;;;;15.64;93.52;100388.47;5062138;28;21013;-49
2023/07/14 04:42:17;;;;;;;0.50;0.20;;;;;;;15.87;92.37;100381.09;5059012;28;20537;-48
2023/07/14 04:44:43;;;;;;;0.40;0.20;;;;;;;15.61;93.24;100395.75;5072226;28;20489;-48
2023/07/14 04:47:10;;;;;;;0.40;0.20;;;;;;;15.78;93.13;100392.31;5072186;28;20477;-48
2023/07/14 04:49:37;;;;;;;0.40;0.20;;;;;;;16.08;91.78;100398.84;5072403;28;20553;-48
2023/07/14 04:52:03;;;;;;;0.50;0.20;;;;;;;15.92;92.39;100397.84;5072406;28;20830;-48
2023/07/14 04:54:32;;;;;;;0.40;0.20;;;;;;;16.09;91.76;100397.88;5072185;28;20953;-48
2023/07/14 04:56:58;;;;;;;0.40;0.20;;;;;;;16.22;92.30;100396.34;5071669;28;21070;-48
2023/07/14 04:59:24;;;;;;;0.40;0.20;;;;;;;16.44;91.22;100403.28;5072048;28;20560;-48
2023/07/14 05:01:51;;;;;;;0.40;0.20;;;;;;;16.64;90.61;100399.59;5072265;28;20508;-48
2023/07/14 05:04:17;;;;;;;0.40;0.20;;;;;;;17.31;87.80;100404.97;5072357;28;20446;-48
2023/07/14 05:06:44;;;;;;;1.80;1.43;;;;;;;17.57;86.62;100410.72;5072055;28;20445;-48
2023/07/14 05:09:10;;;;;;;0.50;0.20;;;;;;;17.57;86.00;100408.03;5072155;28;20494;-48
2023/07/14 05:11:38;;;;;;;0.50;0.20;;;;;;;17.72;84.58;100402.72;5072001;28;20544;-49
2023/07/14 05:14:05;;;;;;;0.40;0.20;;;;;;;17.74;84.73;100402.63;5072617;28;20495;-48
2023/07/14 05:16:32;;;;;;;0.50;0.20;;;;;;;17.88;84.59;100391.94;5072234;28;20517;-48
2023/07/14 05:18:58;;;;;;;0.40;0.20;;;;;;;18.02;83.83;100391.16;5072159;28;20469;-48
2023/07/14 05:21:25;;;;;;;0.40;0.20;;;;;;;17.93;83.63;100383.59;5066937;28;20457;-48
2023/07/14 05:23:51;;;;;;;0.40;0.20;;;;;;;18.10;83.17;100378.13;5063760;28;20446;-48
2023/07/14 05:26:18;;;;;;;0.40;0.20;;;;;;;18.06;83.74;100382.81;5071906;28;20544;-49
2023/07/14 05:28:45;;;;;;;0.43;0.20;;;;;;;18.13;82.55;100374.41;5071670;28;20560;-48
2023/07/14 05:31:12;;;;;;;0.50;0.20;;;;;;;18.09;82.49;100375.50;5071701;28;20949;-49
2023/07/14 05:33:39;;;;;;;0.50;0.20;;;;;;;17.90;82.65;100370.34;5072061;28;20477;-48
2023/07/14 05:36:06;;;;;;;0.40;0.20;;;;;;;18.20;81.99;100373.94;5071807;28;20450;-48
2023/07/14 05:38:33;;;;;;;0.40;0.20;;;;;;;18.12;82.66;100376.22;5063260;28;20520;-48
2023/07/14 05:41:03;;;;;;;0.50;0.20;;;;;;;18.19;82.08;100371.31;5064906;28;20934;-48
2023/07/14 05:43:31;;;;;;;0.50;0.20;;;;;;;18.36;81.51;100371.19;5063991;28;20454;-48
2023/07/14 05:45:58;;;;;;;0.50;0.20;;;;;;;18.49;81.22;100371.31;5065882;28;20826;-48
2023/07/14 05:48:25;;;;;;;0.50;0.20;;;;;;;18.77;80.84;100374.13;5064663;28;20553;-49
2023/07/14 05:50:51;;;;;;;0.47;0.20;;;;;;;18.83;80.29;100371.06;5071771;28;20457;-48
2023/07/14 05:53:18;;;;;;;0.50;0.20;;;;;;;19.16;79.35;100373.47;5071759;28;20999;-48
2023/07/14 05:55:45;;;;;;;0.50;0.20;;;;;;;19.31;78.71;100366.25;5058258;28;20891;-48
2023/07/14 05:58:11;;;;;;;0.50;0.30;;;;;;;19.48;77.97;100365.19;5071692;28;20507;-49
2023/07/14 06:00:38;;;;;;;0.50;0.20;;;;;;;19.47;76.56;100372.41;5058594;28;20515;-48
2023/07/14 06:03:11;;;;;;;0.50;0.20;;;;;;;19.96;74.48;100363.84;5071405;28;20446;-48
2023/07/14 06:05:37;;;;;;;0.50;0.20;;;;;;;19.91;74.37;100366.00;5071671;28;20528;-48
2023/07/14 06:08:04;;;;;;;0.50;0.20;;;;;;;20.04;73.44;100369.63;5063594;28;20498;-48
2023/07/14 06:10:32;;;;;;;0.50;0.30;;;;;;;20.22;73.02;100363.94;5075287;28;20489;-49
2023/07/14 06:12:59;;;;;;;0.50;0.20;;;;;;;20.29;72.28;100354.47;5074998;28;20473;-48
2023/07/14 06:15:25;;;;;;;0.50;0.20;;;;;;;20.42;71.03;100355.38;5075046;28;20445;-49
2023/07/14 06:17:52;;;;;;;0.50;0.20;;;;;;;20.62;70.85;100356.72;5074825;28;20489;-49
2023/07/14 06:20:20;;;;;;;0.50;0.20;;;;;;;21.03;68.45;100358.38;5066546;28;20477;-48
2023/07/14 06:22:48;;;;;;;0.50;0.20;;;;;;;21.20;67.04;100363.44;5070104;28;20503;-49
2023/07/14 06:25:15;;;;;;;0.50;0.20;;;;;;;21.31;67.47;100360.00;5075220;28;20446;-49
2023/07/14 06:27:42;;;;;;;0.50;0.20;;;;;;;21.21;66.53;100357.03;5074732;28;20990;-49
2023/07/14 06:30:08;;;;;;;0.50;0.20;;;;;;;21.17;65.52;100359.09;5074854;28;20481;-49
2023/07/14 06:32:35;;;;;;;0.50;0.20;;;;;;;21.37;66.20;100349.59;5074671;28;20454;-48
2023/07/14 06:35:03;;;;;;;0.50;0.20;;;;;;;21.05;67.71;100349.16;5074716;28;20481;-48
2023/07/14 06:37:33;;;;;;;0.50;0.20;;;;;;;21.13;67.45;100348.63;5074472;28;20481;-50
2023/07/14 06:39:59;;;;;;;0.50;0.20;;;;;;;21.43;66.01;100351.84;5064816;28;20514;-49
2023/07/14 06:42:26;;;;;;;0.50;0.20;;;;;;;21.33;66.75;100339.09;5057964;28;20446;-48
2023/07/14 06:44:52;;;;;;;0.50;0.20;;;;;;;21.85;66.33;100331.59;5074577;28;20461;-49
2023/07/14 06:47:19;;;;;;;0.50;0.20;;;;;;;21.95;64.95;100337.19;5060966;28;20450;-49
2023/07/14 06:49:45;;;;;;;0.50;0.20;;;;;;;21.85;64.83;100334.31;5074106;28;20465;-50
2023/07/14 06:52:13;;;;;;;0.50;0.20;;;;;;;21.80;65.18;100336.50;5070699;28;20458;-49
2023/07/14 06:54:40;;;;;;;0.50;0.20;;;;;;;22.34;63.60;100337.84;5065245;28;20454;-48
2023/07/14 06:57:08;;;;;;;0.50;0.20;;;;;;;22.07;64.06;100333.59;5074392;28;20943;-49
2023/07/14 06:59:34;;;;;;;0.50;0.20;;;;;;;22.03;64.23;100337.47;5074590;28;20496;-48
2023/07/14 07:02:01;;;;;;;0.50;0.20;;;;;;;21.86;64.98;100327.03;5074151;28;20470;-48
2023/07/14 07:04:28;;;;;;;0.50;0.20;;;;;;;21.98;64.73;100317.13;5073995;28;20789;-50
2023/07/14 07:06:55;;;;;;;0.50;0.20;;;;;;;21.78;64.93;100314.06;5073901;28;20946;-49
2023/07/14 07:09:21;;;;;;;0.50;0.20;;;;;;;21.73;64.40;100312.69;5074146;28;20950;-49
2023/07/14 07:11:48;;;;;;;0.50;0.20;;;;;;;22.26;63.20;100313.22;5074011;28;20477;-48
2023/07/14 07:14:14;;;;;;;0.50;0.20;;;;;;;22.43;61.38;100315.50;5073964;28;20546;-49
2023/07/14 07:16:40;;;;;;;0.50;0.20;;;;;;;22.47;61.30;100316.97;5073770;28;20537;-48
2023/07/14 07:19:07;;;;;;;0.67;0.67;;;;;;;22.91;59.99;100307.25;5073314;28;20528;-49
2023/07/14 07:21:34;;;;;;;0.50;0.20;;;;;;;22.69;60.81;100308.91;5073792;28;20553;-49
2023/07/14 07:24:03;;;;;;;0.50;0.20;;;;;;;22.86;60.10;100298.59;5073925;28;20485;-48
2023/07/14 07:26:30;;;;;;;0.50;0.20;;;;;;;22.86;59.75;100306.72;5073744;28;20450;-49
2023/07/14 07:28:56;;;;;;;0.50;0.30;;;;;;;22.68;60.87;100306.31;5073432;28;20501;-49
2023/07/14 07:31:23;;;;;;;0.50;0.30;;;;;;;22.72;59.80;100291.53;5073492;28;20814;-49
2023/07/14 07:33:49;;;;;;;0.50;0.20;;;;;;;22.99;59.98;100300.22;5073659;28;20472;-49
2023/07/14 07:36:16;;;;;;;0.50;0.20;;;;;;;22.79;60.10;100294.63;5073763;28;20450;-49
2023/07/14 07:38:46;;;;;;;0.50;0.30;;;;;;;22.73;60.01;100285.13;5069746;28;20500;-49
2023/07/14 07:41:21;;;;;;;0.50;0.30;;;;;;;23.07;59.06;100285.19;5067078;28;20529;-49
2023/07/14 07:43:48;;;;;;;0.50;0.20;;;;;;;23.03;59.49;100279.16;5067566;28;20477;-49
2023/07/14 07:46:15;;;;;;;0.50;0.20;;;;;;;22.98;60.57;100294.91;5073176;28;20541;-48
2023/07/14 07:48:44;;;;;;;0.50;0.30;;;;;;;23.20;60.64;100288.63;5073176;28;20469;-49
2023/07/14 07:51:11;;;;;;;0.50;0.20;;;;;;;23.15;59.58;100286.28;5073254;28;20454;-49
2023/07/14 07:53:37;;;;;;;0.50;0.20;;;;;;;23.34;59.15;100274.81;5073076;28;20496;-49
2023/07/14 07:56:04;;;;;;;0.50;0.20;;;;;;;23.22;59.38;100271.25;5073108;28;21027;-50
2023/07/14 07:58:30;;;;;;;0.50;0.20;;;;;;;23.43;58.54;100271.31;5072790;28;20554;-49
2023/07/14 08:01:02;;;;;;;0.50;0.20;;;;;;;23.61;58.16;100272.56;5073262;28;20450;-49
2023/07/14 08:03:30;;;;;;;0.50;0.20;;;;;;;23.80;57.64;100269.16;5071796;28;20452;-49
2023/07/14 08:06:01;;;;;;;0.50;0.20;;;;;;;23.73;57.58;100265.25;5073059;28;20540;-49
2023/07/14 08:08:28;;;;;;;0.50;0.20;;;;;;;24.04;57.92;100260.81;5072748;28;20496;-49
2023/07/14 08:10:55;;;;;;;0.50;0.20;;;;;;;23.86;57.27;100263.22;5073179;28;20448;-49
2023/07/14 08:13:24;;;;;;;0.50;0.20;;;;;;;24.18;55.98;100262.34;5072847;28;20464;-49
2023/07/14 08:15:53;;;;;;;0.50;0.20;;;;;;;24.48;54.81;100262.44;5072991;28;20450;-49
2023/07/14 08:18:22;;;;;;;0.50;0.20;;;;;;;24.49;55.13;100266.00;5072370;28;20901;-48
2023/07/14 08:20:49;;;;;;;0.50;0.20;;;;;;;24.62;53.49;100263.09;5072643;28;20457;-49
2023/07/14 08:23:17;;;;;;;0.50;0.20;;;;;;;24.77;52.88;100264.44;5072518;28;20457;-49
2023/07/14 08:25:43;;;;;;;0.50;0.20;;;;;;;24.72;51.79;100261.28;5072431;28;20536;-49
2023/07/14 08:28:10;;;;;;;0.50;0.30;;;;;;;24.66;50.74;100256.38;5072460;28;20519;-49
2023/07/14 08:30:37;;;;;;;0.50;0.23;;;;;;;24.34;50.26;100259.19;5072142;28;20954;-49
2023/07/14 08:33:03;;;;;;;0.50;0.20;;;;;;;24.59;51.24;100258.78;5072024;28;20420;-49
2023/07/14 08:35:30;;;;;;;0.50;0.30;;;;;;;24.76;49.71;100260.88;5072523;28;20446;-49
2023/07/14 08:37:56;;;;;;;0.50;0.20;;;;;;;24.80;49.72;100254.16;5072539;28;20525;-51
2023/07/14 08:40:31;;;;;;;0.50;0.20;;;;;;;24.81;48.82;100253.19;5072259;28;20594;-51
2023/07/14 08:43:21;;;;;;;0.50;0.20;;;;;;;24.94;48.54;100263.81;5060446;28;21068;-52
2023/07/14 08:46:21;;;;;;;0.50;0.30;;;;;;;25.00;48.37;100257.88;5072339;28;20453;-52
2023/07/14 08:49:03;;;;;;;0.50;0.20;;;;;;;25.62;47.25;100259.47;5031457;28;20482;-51
2023/07/14 08:51:44;;;;;;;0.50;0.20;;;;;;;25.64;46.07;100259.34;5072483;28;20537;-51
2023/07/14 08:54:17;;;;;;;0.50;0.20;;;;;;;25.77;46.01;100249.09;5058986;28;20445;-51
2023/07/14 08:56:43;;;;;;;0.50;0.30;;;;;;;25.55;45.02;100252.00;5072039;28;20486;-51
2023/07/14 08:59:20;;;;;;;0.50;0.20;;;;;;;25.90;44.99;100255.06;5072264;28;20576;-52
2023/07/14 09:01:53;;;;;;;0.50;0.30;;;;;;;26.05;45.38;100252.81;5072288;28;20515;-52
2023/07/14 09:04:25;;;;;;;0.50;0.30;;;;;;;26.16;45.77;100252.63;5072241;28;20947;-54
2023/07/14 09:06:52;;;;;;;0.50;0.20;;;;;;;26.21;44.67;100244.03;5072303;28;20446;-54
2023/07/14 09:09:31;;;;;;;0.50;0.20;;;;;;;25.90;45.40;100246.91;5071875;28;20545;-54
2023/07/14 09:12:04;;;;;;;0.50;0.20;;;;;;;26.05;44.97;100243.78;5072384;28;20446;-53
2023/07/14 09:14:53;;;;;;;0.50;0.23;;;;;;;26.04;45.13;100236.56;5072015;28;20540;-54
2023/07/14 09:17:42;;;;;;;0.50;0.30;;;;;;;26.00;45.23;100238.75;5072221;28;20485;-53
2023/07/14 09:20:24;;;;;;;0.50;0.30;;;;;;;26.22;44.83;100227.53;5059184;28;20525;-53
2023/07/14 09:23:00;;;;;;;0.50;0.30;;;;;;;26.57;43.88;100224.19;5071944;28;20942;-53
2023/07/14 09:25:42;;;;;;;0.50;0.30;;;;;;;26.80;43.38;100212.91;5072126;28;20442;-54
2023/07/14 09:28:20;;;;;;;0.50;0.30;;;;;;;27.14;42.40;100207.78;5071712;28;20541;-54
2023/07/14 09:30:49;;;;;;;0.50;0.30;;;;;;;27.15;42.61;100209.50;5071916;28;20453;-53
2023/07/14 09:33:18;;;;;;;0.50;0.30;;;;;;;26.96;42.15;100198.63;5072101;28;20458;-54
2023/07/14 09:35:46;;;;;;;0.50;0.30;;;;;;;27.06;42.44;100204.94;5071876;28;20556;-53
2023/07/14 09:38:26;;;;;;;0.50;0.30;;;;;;;27.12;41.49;100207.03;5067647;28;20870;-54
2023/07/14 09:40:58;;;;;;;0.50;0.30;;;;;;;26.96;41.52;100207.66;5065617;28;20454;-54
2023/07/14 09:43:25;;;;;;;0.50;0.30;;;;;;;26.14;43.03;100210.19;5065508;28;20450;-53
2023/07/14 09:45:55;;;;;;;0.50;0.30;;;;;;;25.85;43.76;100205.63;5075575;28;20867;-51
2023/07/14 09:48:32;;;;;;;0.50;0.30;;;;;;;26.10;44.22;100206.91;5075655;28;20473;-50
2023/07/14 09:51:10;;;;;;;0.50;0.20;;;;;;;26.11;43.90;100200.44;5075654;28;20515;-51
2023/07/14 09:53:39;;;;;;;0.50;0.30;;;;;;;25.84;44.00;100203.91;5075581;28;20449;-52
2023/07/14 09:56:12;;;;;;;0.50;0.30;;;;;;;26.66;43.00;100194.31;5074643;28;20486;-52
2023/07/14 09:58:49;;;;;;;0.50;0.30;;;;;;;27.14;42.10;100194.13;5075321;28;20515;-54
2023/07/14 10:01:16;;;;;;;0.50;0.30;;;;;;;27.24;41.38;100194.91;5075554;28;20441;-52
2023/07/14 10:03:51;;;;;;;0.50;0.30;;;;;;;27.56;39.89;100179.91;5075494;28;20450;-54
2023/07/14 10:06:22;;;;;;;0.50;0.30;;;;;;;27.79;39.75;100186.63;5075385;28;20420;-54
2023/07/14 10:08:54;;;;;;;0.50;0.30;;;;;;;27.77;38.93;100185.94;5075507;28;20461;-54
2023/07/14 10:11:25;;;;;;;0.50;0.20;;;;;;;27.98;38.73;100182.88;5075436;28;21004;-54
2023/07/14 10:14:05;;;;;;;0.50;0.27;;;;;;;27.71;38.62;100176.50;5075389;28;20451;-54
2023/07/14 10:16:40;;;;;;;0.50;0.30;;;;;;;27.95;39.19;100183.16;5075489;28;20465;-54
2023/07/14 10:19:21;;;;;;;0.50;0.30;;;;;;;27.28;39.36;100177.22;5075309;28;20921;-54
2023/07/14 10:22:11;;;;;;;0.50;0.30;;;;;;;27.62;39.54;100171.94;5059803;28;20870;-54
2023/07/14 10:24:38;;;;;;;0.50;0.23;;;;;;;27.53;39.80;100161.94;5072995;28;20861;-54
2023/07/14 10:27:18;;;;;;;0.50;0.23;;;;;;;27.35;39.93;100159.19;5075391;28;20420;-54
2023/07/14 10:29:50;;;;;;;0.50;0.30;;;;;;;27.26;39.92;100172.91;5075249;28;20462;-54
2023/07/14 10:32:41;;;;;;;0.50;0.30;;;;;;;27.21;40.10;100162.47;5074943;28;20470;-53
2023/07/14 10:35:13;;;;;;;0.50;0.40;;;;;;;27.06;40.33;100161.28;5074875;28;20454;-54
2023/07/14 10:38:04;;;;;;;0.50;0.30;;;;;;;27.00;40.73;100164.56;5074608;28;20524;-54
2023/07/14 10:40:37;;;;;;;0.50;0.30;;;;;;;26.64;41.35;100156.28;5060670;28;20439;-54
2023/07/14 10:43:16;;;;;;;0.50;0.30;;;;;;;26.80;41.21;100152.91;5063067;28;20553;-54
2023/07/14 10:45:49;;;;;;;0.50;0.30;;;;;;;26.90;41.13;100156.44;5074793;28;20528;-53
2023/07/14 10:48:22;;;;;;;0.50;0.30;;;;;;;26.70;41.50;100149.34;5074819;28;20469;-54
2023/07/14 10:51:04;;;;;;;0.50;0.30;;;;;;;26.66;40.53;100161.59;5074836;28;20503;-54
2023/07/14 10:53:38;;;;;;;0.50;0.30;;;;;;;26.49;41.53;100157.78;5074178;28;20477;-52
2023/07/14 10:56:20;;;;;;;0.50;0.30;;;;;;;26.32;41.97;100144.91;5074026;28;20476;-54
2023/07/14 10:58:54;;;;;;;0.50;0.30;;;;;;;26.14;41.85;100156.53;5074182;28;20994;-53
2023/07/14 11:01:36;;;;;;;0.50;0.30;;;;;;;26.05;42.27;100146.56;5074538;28;20424;-53
2023/07/14 11:04:15;;;;;;;0.50;0.30;;;;;;;26.53;41.80;100140.97;5061898;28;20453;-54
2023/07/14 11:06:44;;;;;;;0.50;0.30;;;;;;;26.41;40.95;100138.56;5074536;28;20564;-54
2023/07/14 11:09:12;;;;;;;0.50;0.30;;;;;;;26.47;40.80;100125.22;5074334;28;20493;-54
2023/07/14 11:11:51;;;;;;;0.50;0.20;;;;;;;26.79;41.27;100110.28;5074185;28;20499;-54
2023/07/14 11:14:43;;;;;;;0.50;0.30;;;;;;;26.53;40.65;100091.88;5074152;28;20491;-54
2023/07/14 11:17:37;;;;;;;0.50;0.20;;;;;;;25.90;41.11;100039.03;5074401;28;20442;-54
2023/07/14 11:20:18;;;;;;;0.50;0.20;;;;;;;25.85;41.73;100044.91;5053665;28;20547;-52
2023/07/14 11:22:45;;;;;;;0.50;0.20;;;;;;;26.37;42.63;100064.41;5073810;28;20950;-51
2023/07/14 11:25:26;;;;;;;0.50;0.27;;;;;;;26.74;41.16;100086.19;5074151;28;20525;-52
2023/07/14 11:27:59;;;;;;;0.50;0.27;;;;;;;26.99;40.98;100081.84;5073815;28;20515;-52
2023/07/14 11:30:34;;;;;;;0.50;0.20;;;;;;;27.18;40.08;100069.13;5074084;28;20515;-54
2023/07/14 11:33:17;;;;;;;0.50;0.30;;;;;;;27.38;39.94;100087.03;5073698;28;20476;-54
2023/07/14 11:35:55;;;;;;;0.50;0.20;;;;;;;27.31;40.47;100103.19;5074099;28;20508;-54
2023/07/14 11:38:46;;;;;;;0.50;0.30;;;;;;;27.54;39.43;100087.16;5068611;28;20951;-52
2023/07/14 11:41:15;;;;;;;0.50;0.30;;;;;;;26.98;39.67;100084.72;5060093;28;20491;-54